createdAt,value
2023-03-27T00:01:13.373Z,99899.78
2023-03-27T00:03:40.752Z,99905.66
2023-03-27T00:06:11.305Z,99908.78
2023-03-27T00:08:38.168Z,99913.81
2023-03-27T00:11:05.756Z,99915.41
2023-03-27T00:13:32.439Z,99918.41
2023-03-27T00:15:59.740Z,99925.50
2023-03-27T00:18:28.138Z,99932.59
2023-03-27T00:20:56.625Z,99927.41
2023-03-27T00:23:23.294Z,99933.78
2023-03-27T00:25:50.797Z,99943.06
2023-03-27T00:28:17.842Z,99941.38
2023-03-27T00:30:45.189Z,99941.97
2023-03-27T00:33:12.645Z,99945.59
2023-03-27T00:35:39.201Z,99954.72
2023-03-27T00:38:05.690Z,99955.44
2023-03-27T00:40:32.488Z,99963.00
2023-03-27T00:42:59.247Z,99961.44
2023-03-27T00:45:30.099Z,99967.66
2023-03-27T00:48:03.571Z,99974.53
2023-03-27T00:50:34.749Z,99975.13
2023-03-27T00:53:09.767Z,99978.00
2023-03-27T00:55:40.826Z,99984.97
2023-03-27T00:58:11.437Z,99977.88
2023-03-27T01:00:38.168Z,99980.03
2023-03-27T01:03:07.446Z,99982.69
2023-03-27T01:09:20.849Z,99989.75
2023-03-27T01:12:12.324Z,100002.59
2023-03-27T01:14:48.129Z,100000.78
2023-03-27T01:17:49.263Z,100004.72
2023-03-27T01:20:37.025Z,99996.19
2023-03-27T01:23:59.020Z,100010.59
2023-03-27T01:26:36.091Z,100017.22
2023-03-27T01:29:09.833Z,100022.09
2023-03-27T01:32:18.082Z,100034.72
2023-03-27T01:35:01.325Z,100031.25
2023-03-27T01:37:47.809Z,100033.28
2023-03-27T01:40:14.976Z,100035.72
2023-03-27T01:42:59.713Z,100038.91
2023-03-27T01:45:32.078Z,100052.03
2023-03-27T01:48:06.748Z,100054.00
2023-03-27T01:50:47.271Z,100056.91
2023-03-27T01:53:23.686Z,100057.09
2023-03-27T01:55:58.207Z,100059.72
2023-03-27T01:58:31.398Z,100059.38
2023-03-27T02:01:04.058Z,100063.78
2023-03-27T02:03:52.556Z,100068.63
2023-03-27T02:06:28.323Z,100066.50
2023-03-27T02:08:54.702Z,100070.16
2023-03-27T02:11:26.654Z,100070.78
2023-03-27T02:14:15.915Z,100068.53
2023-03-27T02:16:48.654Z,100074.22
2023-03-27T02:19:23.276Z,100082.34
2023-03-27T02:21:49.812Z,100082.81
2023-03-27T02:24:19.633Z,100094.72
2023-03-27T02:26:52.210Z,100098.91
2023-03-27T02:29:33.581Z,100107.56
2023-03-27T02:32:33.012Z,100109.31
2023-03-27T02:35:17.598Z,100105.00
2023-03-27T02:38:09.597Z,100117.66
2023-03-27T02:40:55.380Z,100119.78
2023-03-27T02:44:04.490Z,100124.03
2023-03-27T02:46:41.488Z,100128.56
2023-03-27T02:49:14.962Z,100138.63
2023-03-27T02:51:53.205Z,100142.09
2023-03-27T02:54:25.499Z,100153.91
2023-03-27T02:56:59.038Z,100157.41
2023-03-27T02:59:35.813Z,100159.53
2023-03-27T03:02:09.554Z,100164.69
2023-03-27T03:04:41.938Z,100173.56
2023-03-27T03:07:11.475Z,100171.22
2023-03-27T03:09:40.372Z,100171.31
2023-03-27T03:12:07.990Z,100181.47
2023-03-27T03:14:39.141Z,100178.09
2023-03-27T03:17:06.128Z,100183.50
2023-03-27T03:19:32.574Z,100185.25
2023-03-27T03:21:59.090Z,100190.66
2023-03-27T03:24:27.583Z,100198.66
2023-03-27T03:26:54.042Z,100205.09
2023-03-27T03:29:20.515Z,100205.72
2023-03-27T03:31:47.033Z,100210.38
2023-03-27T03:34:16.461Z,100226.38
2023-03-27T03:36:44.946Z,100224.19
2023-03-27T03:39:12.594Z,100220.72
2023-03-27T03:41:39.430Z,100225.75
2023-03-27T03:44:05.920Z,100226.28
2023-03-27T03:46:32.445Z,100236.94
2023-03-27T03:48:59.413Z,100237.97
2023-03-27T03:51:26.223Z,100241.97
2023-03-27T03:53:52.737Z,100239.84
2023-03-27T03:56:19.194Z,100243.63
2023-03-27T03:58:45.617Z,100252.47
2023-03-27T04:01:12.628Z,100254.56
2023-03-27T04:03:39.310Z,100258.44
2023-03-27T04:06:07.586Z,100259.84
2023-03-27T04:08:34.964Z,100256.38
2023-03-27T04:11:01.471Z,100258.50
2023-03-27T04:13:27.925Z,100263.91
2023-03-27T04:15:55.413Z,100260.16
2023-03-27T04:18:32.433Z,100269.34
2023-03-27T04:20:59.509Z,100271.97
2023-03-27T04:23:32.164Z,100279.69
2023-03-27T04:26:00.394Z,100279.56
2023-03-27T04:28:27.963Z,100273.66
2023-03-27T04:30:54.796Z,100286.06
2023-03-27T04:33:23.042Z,100293.63
2023-03-27T04:36:05.650Z,100296.25
2023-03-27T04:38:38.137Z,100291.66
2023-03-27T04:41:05.386Z,100300.31
2023-03-27T04:43:32.038Z,100302.94
2023-03-27T04:45:58.504Z,100304.06
2023-03-27T04:48:24.919Z,100306.25
2023-03-27T04:50:51.377Z,100310.38
2023-03-27T04:53:20.438Z,100308.06
2023-03-27T04:55:51.121Z,100315.06
2023-03-27T04:58:18.732Z,100318.91
2023-03-27T05:00:50.769Z,100324.88
2023-03-27T05:03:20.460Z,100337.56
2023-03-27T05:05:49.538Z,100338.22
2023-03-27T05:08:16.739Z,100347.97
2023-03-27T05:10:44.365Z,100355.81
2023-03-27T05:13:10.790Z,100356.53
2023-03-27T05:15:39.016Z,100351.28
2023-03-27T05:18:07.176Z,100359.34
2023-03-27T05:20:34.264Z,100365.28
2023-03-27T05:23:00.864Z,100370.19
2023-03-27T05:25:28.632Z,100367.72
2023-03-27T05:27:55.469Z,100369.34
2023-03-27T05:30:23.652Z,100372.81
2023-03-27T05:32:54.452Z,100377.78
2023-03-27T05:35:23.386Z,100376.75
2023-03-27T05:37:52.679Z,100379.22
2023-03-27T05:40:22.321Z,100380.16
2023-03-27T05:42:50.457Z,100390.03
2023-03-27T05:45:17.946Z,100401.78
2023-03-27T05:47:49.638Z,100401.88
2023-03-27T05:50:17.973Z,100406.19
2023-03-27T05:52:45.253Z,100417.09
2023-03-27T05:55:12.855Z,100420.38
2023-03-27T05:57:41.174Z,100417.38
2023-03-27T06:00:11.676Z,100420.03
2023-03-27T06:02:39.280Z,100428.75
2023-03-27T06:05:10.826Z,100435.81
2023-03-27T06:07:43.158Z,100433.19
2023-03-27T06:10:13.517Z,100439.13
2023-03-27T06:12:41.860Z,100439.78
2023-03-27T06:15:09.969Z,100444.66
2023-03-27T06:17:39.875Z,100457.34
2023-03-27T06:20:15.333Z,100447.44
2023-03-27T06:22:47.278Z,100457.56
2023-03-27T06:25:15.562Z,100459.44
2023-03-27T06:27:46.568Z,100465.41
2023-03-27T06:30:19.051Z,100465.19
2023-03-27T06:32:46.547Z,100464.81
2023-03-27T06:35:16.414Z,100472.03
2023-03-27T06:37:48.306Z,100468.34
2023-03-27T06:40:22.739Z,100478.59
2023-03-27T06:43:00.890Z,100473.66
2023-03-27T06:45:41.615Z,100480.50
2023-03-27T06:48:16.074Z,100486.19
2023-03-27T06:50:47.204Z,100490.66
2023-03-27T06:53:26.637Z,100497.84
2023-03-27T06:55:54.430Z,100502.78
2023-03-27T06:58:21.738Z,100514.16
2023-03-27T07:00:49.662Z,100507.63
2023-03-27T07:03:17.928Z,100519.22
2023-03-27T07:05:45.390Z,100517.47
2023-03-27T07:08:23.216Z,100515.59
2023-03-27T07:11:07.388Z,100514.41
2023-03-27T07:13:37.337Z,100520.72
2023-03-27T07:16:04.472Z,100526.25
2023-03-27T07:18:31.386Z,100523.59
2023-03-27T07:20:58.030Z,100527.75
2023-03-27T07:23:24.700Z,100526.28
2023-03-27T07:25:52.123Z,100524.50
2023-03-27T07:28:19.661Z,100531.03
2023-03-27T07:30:46.319Z,100539.63
2023-03-27T07:33:13.188Z,100531.81
2023-03-27T07:35:45.200Z,100539.50
2023-03-27T07:38:12.416Z,100550.34
2023-03-27T07:40:40.355Z,100548.69
2023-03-27T07:43:07.572Z,100547.72
2023-03-27T07:45:34.929Z,100538.41
2023-03-27T07:48:09.441Z,100546.13
2023-03-27T07:50:37.535Z,100548.44
2023-03-27T07:53:06.384Z,100547.56
2023-03-27T07:55:33.539Z,100547.72
2023-03-27T07:58:02.984Z,100555.94
2023-03-27T08:00:31.094Z,100542.28
2023-03-27T08:03:07.408Z,100554.03
2023-03-27T08:05:34.476Z,100555.19
2023-03-27T08:08:01.408Z,100543.00
2023-03-27T08:10:28.062Z,100550.88
2023-03-27T08:12:54.720Z,100544.28
2023-03-27T08:15:21.340Z,100541.56
2023-03-27T08:17:47.981Z,100543.38
2023-03-27T08:20:15.322Z,100542.06
2023-03-27T08:22:42.070Z,100556.88
2023-03-27T08:25:10.354Z,100556.69
2023-03-27T08:27:36.940Z,100560.00
2023-03-27T08:30:04.597Z,100570.41
2023-03-27T08:32:31.848Z,100571.53
2023-03-27T08:34:58.450Z,100564.00
2023-03-27T08:37:24.979Z,100575.75
2023-03-27T08:39:51.451Z,100573.06
2023-03-27T08:42:34.875Z,100575.25
2023-03-27T08:45:14.475Z,100584.66
2023-03-27T08:47:47.360Z,100580.84
2023-03-27T08:50:40.214Z,100588.06
2023-03-27T08:53:18.441Z,100601.19
2023-03-27T08:55:46.676Z,100609.50
2023-03-27T08:58:19.689Z,100606.59
2023-03-27T09:00:55.880Z,100608.16
2023-03-27T09:03:32.202Z,100613.91
2023-03-27T09:06:06.441Z,100604.78
2023-03-27T09:08:47.380Z,100611.41
2023-03-27T09:11:44.258Z,100620.72
2023-03-27T09:14:35.549Z,100617.03
2023-03-27T09:17:11.636Z,100615.72
2023-03-27T09:19:53.903Z,100633.88
2023-03-27T09:22:44.317Z,100625.09
2023-03-27T09:25:30.073Z,100625.81
2023-03-27T09:27:57.998Z,100627.97
2023-03-27T09:30:29.198Z,100622.16
2023-03-27T09:32:59.482Z,100624.09
2023-03-27T09:35:26.274Z,100620.44
2023-03-27T09:38:01.253Z,100630.75
2023-03-27T09:40:45.703Z,100634.50
2023-03-27T09:43:19.556Z,100629.66
2023-03-27T09:45:48.855Z,100627.53
2023-03-27T09:48:33.495Z,100623.03
2023-03-27T09:51:00.298Z,100623.56
2023-03-27T09:53:27.972Z,100635.78
2023-03-27T09:56:05.392Z,100632.78
2023-03-27T09:58:39.636Z,100640.00
2023-03-27T10:01:07.390Z,100634.91
2023-03-27T10:03:39.386Z,100633.03
2023-03-27T10:06:09.256Z,100634.78
2023-03-27T10:08:42.000Z,100630.94
2023-03-27T10:11:16.192Z,100627.97
2023-03-27T10:13:48.166Z,100623.69
2023-03-27T10:16:17.889Z,100631.06
2023-03-27T10:18:49.996Z,100632.91
2023-03-27T10:21:25.440Z,100632.72
2023-03-27T10:23:58.817Z,100651.59
2023-03-27T10:26:27.226Z,100647.16
2023-03-27T10:29:01.507Z,100654.81
2023-03-27T10:31:30.015Z,100641.63
2023-03-27T10:34:00.399Z,100653.34
2023-03-27T10:36:27.698Z,100640.09
2023-03-27T10:39:02.304Z,100651.47
2023-03-27T10:41:30.719Z,100649.47
2023-03-27T10:43:58.242Z,100659.44
2023-03-27T11:31:32.292Z,100678.09
2023-03-27T12:01:41.803Z,100654.06
2023-03-27T12:04:14.410Z,100651.06
2023-03-27T12:06:57.046Z,100650.53
2023-03-27T12:52:39.791Z,100677.63
2023-03-27T12:55:18.441Z,100671.56
2023-03-27T12:57:46.630Z,100670.78
2023-03-27T13:00:21.860Z,100671.69
2023-03-27T13:03:02.628Z,100680.19
2023-03-27T13:05:29.190Z,100700.41
2023-03-27T13:08:17.596Z,100730.69
2023-03-27T13:11:02.151Z,100720.06
2023-03-27T13:13:58.694Z,100713.53
2023-03-27T13:16:25.620Z,100721.53
2023-03-27T13:19:20.258Z,100707.72
2023-03-27T13:21:55.617Z,100720.75
2023-03-27T13:24:38.872Z,100719.31
2023-03-27T13:27:22.101Z,100717.38
2023-03-27T13:29:51.900Z,100728.19
2023-03-27T13:32:36.911Z,100717.59
2023-03-27T13:35:21.733Z,100724.13
2023-03-27T13:37:51.752Z,100729.13
2023-03-27T13:40:27.089Z,100729.63
2023-03-27T13:43:00.677Z,100729.66
2023-03-27T13:45:32.012Z,100735.72
2023-03-27T13:48:25.562Z,100727.06
2023-03-27T13:50:55.096Z,100732.97
2023-03-27T13:53:50.976Z,100738.72
2023-03-27T13:56:33.376Z,100750.81
2023-03-27T13:59:38.537Z,100758.16
2023-03-27T14:02:53.320Z,100762.94
2023-03-27T14:05:47.073Z,100780.19
2023-03-27T14:08:34.137Z,100762.84
2023-03-27T14:11:10.629Z,100772.06
2023-03-27T14:13:58.643Z,100762.19
2023-03-27T14:16:51.882Z,100754.50
2023-03-27T14:19:24.252Z,100760.88
2023-03-27T14:22:02.360Z,100762.25
2023-03-27T14:24:28.862Z,100760.56
2023-03-27T14:26:56.633Z,100754.84
2023-03-27T14:29:23.170Z,100754.06
2023-03-27T14:31:50.780Z,100758.91
2023-03-27T14:34:24.879Z,100758.66
2023-03-27T14:36:52.225Z,100761.50
2023-03-27T14:39:25.974Z,100758.19
2023-03-27T14:42:01.665Z,100759.69
2023-03-27T14:44:32.364Z,100774.09
2023-03-27T14:47:03.669Z,100767.75
2023-03-27T14:49:37.253Z,100763.53
2023-03-27T14:52:07.739Z,100767.13
2023-03-27T14:54:44.614Z,100767.34
2023-03-27T14:57:16.568Z,100761.22
2023-03-27T14:59:44.143Z,100767.91
2023-03-27T15:02:20.635Z,100770.78
2023-03-27T15:04:47.229Z,100772.91
2023-03-27T15:07:28.554Z,100784.88
2023-03-27T15:10:06.966Z,100779.03
2023-03-27T15:12:33.957Z,100777.19
2023-03-27T15:15:00.448Z,100773.16
2023-03-27T15:17:30.500Z,100768.88
2023-03-27T15:20:07.541Z,100770.59
2023-03-27T15:22:39.837Z,100773.63
2023-03-27T15:25:17.408Z,100774.50
2023-03-27T15:27:52.850Z,100775.88
2023-03-27T15:30:35.389Z,100770.78
2023-03-27T15:33:04.385Z,100767.28
2023-03-27T15:35:35.921Z,100766.84
2023-03-27T15:38:05.362Z,100760.53
2023-03-27T15:40:37.508Z,100761.66
2023-03-27T15:43:14.269Z,100761.59
2023-03-27T15:46:02.127Z,100767.34
2023-03-27T15:48:35.563Z,100762.03
2023-03-27T15:51:13.736Z,100773.69
2023-03-27T15:53:45.210Z,100772.84
2023-03-27T15:56:29.159Z,100766.59
2023-03-27T15:59:01.859Z,100774.72
2023-03-27T16:01:32.997Z,100776.84
2023-03-27T16:04:14.435Z,100782.91
2023-03-27T16:06:45.686Z,100774.97
2023-03-27T16:09:24.042Z,100780.88
2023-03-27T16:11:52.842Z,100793.16
2023-03-27T16:14:22.547Z,100790.84
2023-03-27T16:16:54.967Z,100807.25
2023-03-27T16:19:21.565Z,100827.19
2023-03-27T16:21:57.477Z,100840.31
2023-03-27T16:24:24.121Z,100836.25
2023-03-27T16:26:52.638Z,100846.97
2023-03-27T16:29:20.887Z,100837.88
2023-03-27T16:31:47.384Z,100826.78
2023-03-27T16:34:22.345Z,100822.25
2023-03-27T16:36:50.051Z,100817.53
2023-03-27T16:39:17.173Z,100811.59
2023-03-27T16:41:43.679Z,100809.28
2023-03-27T16:44:10.245Z,100814.00
2023-03-27T17:23:01.000Z,100875.81
2023-03-27T17:25:27.925Z,100879.06
2023-03-27T17:27:54.358Z,100892.34
2023-03-27T17:30:34.743Z,100888.75
2023-03-27T17:33:05.105Z,100892.47
2023-03-27T17:35:31.787Z,100901.78
2023-03-27T17:37:58.314Z,100902.56
2023-03-27T17:40:24.732Z,100900.66
2023-03-27T17:42:51.463Z,100906.03
2023-03-27T17:45:18.001Z,100910.97
2023-03-27T17:47:44.534Z,100910.75
2023-03-27T17:50:11.043Z,100916.31
2023-03-27T17:52:37.509Z,100910.97
2023-03-27T17:55:04.280Z,100915.66
2023-03-27T17:57:30.844Z,100917.94
2023-03-27T17:59:57.603Z,100907.06
2023-03-27T18:02:24.086Z,100913.88
2023-03-27T18:04:52.612Z,100917.47
2023-03-27T18:07:20.524Z,100916.88
2023-03-27T18:09:47.142Z,100912.53
2023-03-27T18:12:14.264Z,100919.34
2023-03-27T18:14:41.584Z,100913.38
2023-03-27T18:17:08.042Z,100912.53
2023-03-27T18:19:34.677Z,100909.25
2023-03-27T18:22:01.914Z,100906.78
2023-03-27T18:24:28.494Z,100908.19
2023-03-27T18:26:55.452Z,100919.22
2023-03-27T18:29:24.097Z,100921.66
2023-03-27T18:31:50.656Z,100927.72
2023-03-27T18:34:17.228Z,100944.69
2023-03-27T18:36:50.559Z,100957.72
2023-03-27T18:39:22.255Z,100961.38
2023-03-27T18:41:48.701Z,100946.31
2023-03-27T18:44:15.553Z,100937.63
2023-03-27T18:46:42.038Z,100955.91
2023-03-27T18:49:21.493Z,100933.16
2023-03-27T18:51:51.214Z,100936.25
2023-03-27T18:54:17.715Z,100930.31
2023-03-27T18:56:44.195Z,100940.69
2023-03-27T18:59:11.138Z,100942.66
2023-03-27T19:01:37.683Z,100940.63
2023-03-27T19:04:04.590Z,100943.16
2023-03-27T19:06:33.336Z,100934.69
2023-03-27T19:08:59.830Z,100934.28
2023-03-27T19:11:26.313Z,100927.97
2023-03-27T19:13:52.800Z,100928.06
2023-03-27T19:16:19.377Z,100925.84
2023-03-27T19:18:45.890Z,100916.81
2023-03-27T19:21:12.375Z,100914.53
2023-03-27T19:23:38.877Z,100920.13
2023-03-27T19:26:10.464Z,100919.47
2023-03-27T19:28:37.209Z,100914.00
2023-03-27T19:31:05.926Z,100918.00
2023-03-27T19:33:32.460Z,100917.44
2023-03-27T19:35:58.992Z,100914.78
2023-03-27T19:38:25.495Z,100924.81
2023-03-27T19:40:52.064Z,100917.69
2023-03-27T19:43:18.875Z,100921.50
2023-03-27T19:46:08.117Z,100910.28
2023-03-27T19:48:42.146Z,100918.03
2023-03-27T19:51:08.581Z,100910.72
2023-03-27T19:53:35.123Z,100909.44
2023-03-27T19:56:01.795Z,100916.72
2023-03-27T19:58:29.180Z,100905.88
2023-03-27T20:00:55.865Z,100909.75
2023-03-27T20:03:25.688Z,100908.84
2023-03-27T20:05:54.089Z,100899.13
2023-03-27T20:08:21.375Z,100905.41
2023-03-27T20:10:49.219Z,100914.31
2023-03-27T20:13:17.326Z,100903.91
2023-03-27T20:15:52.101Z,100904.34
2023-03-27T20:18:22.118Z,100905.00
2023-03-27T20:20:50.117Z,100897.00
2023-03-27T20:23:17.658Z,100902.72
2023-03-27T20:25:45.011Z,100887.16
2023-03-27T20:28:11.484Z,100903.41
2023-03-27T20:30:39.895Z,100900.16
2023-03-27T20:33:06.544Z,100900.75
2023-03-27T20:35:33.828Z,100896.59
2023-03-27T20:38:04.805Z,100896.25
2023-03-27T20:43:17.367Z,100896.56
2023-03-27T20:45:44.352Z,100893.94
2023-03-27T20:48:14.964Z,100894.19
2023-03-27T20:50:51.430Z,100896.81
2023-03-27T20:53:26.022Z,100884.66
2023-03-27T20:55:59.809Z,100886.28
2023-03-27T20:58:32.348Z,100880.94
2023-03-27T21:01:04.851Z,100891.38
2023-03-27T21:03:34.928Z,100893.88
2023-03-27T21:06:15.608Z,100903.56
2023-03-27T21:08:43.051Z,100893.13
2023-03-27T21:11:09.518Z,100897.31
2023-03-27T21:13:36.328Z,100912.78
2023-03-27T21:16:03.580Z,100899.00
2023-03-27T21:21:05.741Z,100890.34
2023-03-27T21:23:32.276Z,100882.34
2023-03-27T21:25:58.945Z,100873.97
2023-03-27T21:33:49.070Z,100899.56
2023-03-27T21:36:15.686Z,100897.16
2023-03-27T21:38:42.268Z,100898.00
2023-03-27T21:41:13.287Z,100889.81
2023-03-27T21:43:39.721Z,100892.38
2023-03-27T21:46:06.532Z,100886.94
2023-03-27T21:48:33.152Z,100874.31
2023-03-27T21:51:05.286Z,100874.56
2023-03-27T21:53:31.761Z,100877.06
2023-03-27T21:55:58.645Z,100879.75
2023-03-27T21:58:25.726Z,100882.63
2023-03-27T22:00:52.803Z,100886.44
2023-03-27T22:03:19.318Z,100886.94
2023-03-27T22:05:51.591Z,100880.97
2023-03-27T22:08:27.773Z,100885.78
2023-03-27T22:10:58.340Z,100881.59
2023-03-27T22:13:24.867Z,100888.66
2023-03-27T22:15:51.466Z,100884.00
2023-03-27T22:18:18.197Z,100886.03
2023-03-27T22:20:44.727Z,100899.34
2023-03-27T22:23:11.224Z,100893.75
2023-03-27T22:25:37.660Z,100906.81
2023-03-27T22:28:04.179Z,100901.50
2023-03-27T22:30:30.910Z,100901.25
2023-03-27T22:32:57.507Z,100902.41
2023-03-27T22:35:24.025Z,100913.75
2023-03-27T22:37:50.565Z,100914.31
2023-03-27T22:40:17.113Z,100912.78
2023-03-27T22:42:43.688Z,100906.59
2023-03-27T22:45:10.975Z,100914.97
2023-03-27T22:47:37.499Z,100911.25
2023-03-27T22:50:06.309Z,100919.19
2023-03-27T22:52:32.812Z,100921.09
2023-03-27T22:54:59.250Z,100926.31
2023-03-27T22:57:25.803Z,100927.16
2023-03-27T22:59:52.340Z,100918.06
2023-03-27T23:02:18.788Z,100931.50
2023-03-27T23:04:45.428Z,100934.19
2023-03-27T23:07:12.080Z,100927.75
2023-03-27T23:09:38.493Z,100921.13
2023-03-27T23:12:05.314Z,100922.84
2023-03-27T23:14:31.863Z,100931.22
2023-03-27T23:16:58.379Z,100932.84
2023-03-27T23:19:24.841Z,100937.94
2023-03-27T23:21:51.398Z,100949.03
2023-03-27T23:24:17.991Z,100944.81
2023-03-27T23:26:44.474Z,100952.66
